Time;durP1;ratioP1;P1;durP2;ratioP2;P2;SDS_P1;SDS_P2;PMS_P1;PMS_P2;Temp;Humidity;BMP_temperature;BMP_pressure;BME280_temperature;BME280_humidity;BME280_pressure;Samples;Min_cycle;Max_cycle;Signal;HPM_P1;HPM_P2
2021/05/16 00:00:55;;;;;;;3.22;3.03;;;15.20;99.90;;;;;;5071100;28;20214;-70
2021/05/16 00:03:22;;;;;;;3.40;3.10;;;15.20;99.90;;;;;;5071110;28;20688;-71
2021/05/16 00:05:49;;;;;;;3.15;2.60;;;15.20;99.90;;;;;;5071523;28;20681;-70
2021/05/16 00:08:15;;;;;;;2.42;2.22;;;15.20;99.90;;;;;;5070998;28;20241;-70
2021/05/16 00:10:42;;;;;;;2.53;2.33;;;15.20;99.90;;;;;;5071638;28;20316;-70
2021/05/16 00:13:10;;;;;;;3.30;3.00;;;15.20;99.90;;;;;;5071161;28;20276;-71
2021/05/16 00:15:38;;;;;;;2.92;2.72;;;15.20;99.90;;;;;;5069177;28;20202;-70
2021/05/16 00:18:05;;;;;;;3.03;2.67;;;15.20;99.90;;;;;;5063623;28;20225;-71
2021/05/16 00:20:33;;;;;;;3.33;3.03;;;15.20;99.90;;;;;;5070768;28;20206;-71
2021/05/16 00:23:00;;;;;;;2.40;2.22;;;15.20;99.90;;;;;;5070583;28;20210;-71
2021/05/16 00:25:28;;;;;;;2.30;2.10;;;15.20;99.90;;;;;;5070546;28;20206;-72
2021/05/16 00:27:56;;;;;;;2.65;2.20;;;15.20;99.90;;;;;;5070478;28;20746;-72
2021/05/16 00:30:25;;;;;;;2.22;2.03;;;15.10;99.90;;;;;;5070575;28;20206;-73
2021/05/16 00:32:53;;;;;;;2.92;2.20;;;15.10;99.90;;;;;;5071299;28;20294;-72
2021/05/16 00:35:23;;;;;;;2.80;2.60;;;15.10;99.90;;;;;;5070713;28;20585;-72
2021/05/16 00:37:50;;;;;;;2.67;2.47;;;15.10;99.90;;;;;;5071513;28;20202;-72
2021/05/16 00:40:18;;;;;;;2.70;2.50;;;15.10;99.90;;;;;;5070624;28;20206;-72
2021/05/16 00:42:45;;;;;;;2.83;2.63;;;15.10;99.90;;;;;;5070692;28;20579;-72
2021/05/16 00:45:13;;;;;;;2.67;2.47;;;15.10;99.90;;;;;;5070000;28;20552;-71
2021/05/16 00:47:46;;;;;;;3.13;2.88;;;15.10;99.90;;;;;;5071115;28;20279;-73
2021/05/16 00:50:14;;;;;;;2.65;2.45;;;15.10;99.90;;;;;;5070494;28;20263;-74
2021/05/16 00:52:42;;;;;;;2.95;2.75;;;15.20;99.90;;;;;;5056766;28;20630;-72
2021/05/16 00:55:11;;;;;;;3.88;3.58;;;15.20;99.90;;;;;;5070084;28;20222;-73
2021/05/16 00:57:38;;;;;;;3.17;2.70;;;15.20;99.90;;;;;;5069919;28;20711;-72
2021/05/16 01:00:08;;;;;;;2.78;2.53;;;15.20;99.90;;;;;;5070084;28;20617;-72
2021/05/16 01:02:34;;;;;;;2.28;2.03;;;15.20;99.90;;;;;;5070214;28;20213;-75
2021/05/16 01:05:01;;;;;;;2.88;2.67;;;15.20;99.90;;;;;;5070284;28;20202;-74
2021/05/16 01:07:28;;;;;;;2.70;2.50;;;15.20;99.90;;;;;;5070361;28;20210;-73
2021/05/16 01:09:55;;;;;;;2.85;2.25;;;15.20;99.90;;;;;;5070042;28;20213;-76
2021/05/16 01:12:29;;;;;;;2.42;2.22;;;15.20;99.90;;;;;;5069956;28;20661;-73
2021/05/16 01:14:58;;;;;;;2.88;2.28;;;15.20;99.90;;;;;;5070163;28;20210;-74
2021/05/16 01:17:24;;;;;;;2.10;1.95;;;15.20;99.90;;;;;;5070317;28;20723;-73
2021/05/16 01:19:51;;;;;;;2.63;2.40;;;15.20;99.90;;;;;;5070682;28;20217;-78
2021/05/16 01:22:18;;;;;;;4.38;2.28;;;15.20;99.90;;;;;;5070384;28;20206;-77
2021/05/16 01:24:47;;;;;;;3.33;2.35;;;15.20;99.90;;;;;;5069867;28;20217;-76
2021/05/16 01:27:15;;;;;;;2.58;2.45;;;15.20;99.90;;;;;;5069764;28;20681;-75
2021/05/16 01:29:43;;;;;;;2.70;2.33;;;15.10;99.90;;;;;;5070068;28;20288;-78
2021/05/16 01:32:11;;;;;;;2.33;2.13;;;15.10;99.90;;;;;;5070329;28;20202;-73
2021/05/16 01:34:39;;;;;;;3.72;2.50;;;15.10;99.90;;;;;;5070075;28;20708;-78
2021/05/16 01:37:06;;;;;;;3.22;2.75;;;15.10;99.90;;;;;;5072658;28;20259;-74
2021/05/16 01:39:33;;;;;;;2.38;2.22;;;15.10;99.90;;;;;;5074342;28;20218;-76
2021/05/16 01:42:00;;;;;;;3.65;2.83;;;15.10;99.90;;;;;;5073142;28;20206;-78
2021/05/16 01:44:26;;;;;;;2.75;2.55;;;15.10;99.90;;;;;;5074312;28;20259;-76
2021/05/16 01:46:54;;;;;;;2.45;2.25;;;15.10;99.90;;;;;;5073911;28;20233;-74
2021/05/16 01:49:20;;;;;;;2.63;2.42;;;15.10;99.90;;;;;;5074343;28;20238;-75
2021/05/16 01:51:47;;;;;;;2.85;2.00;;;15.10;99.90;;;;;;5073757;28;20602;-74
2021/05/16 01:54:14;;;;;;;2.88;2.60;;;15.20;99.90;;;;;;5073793;28;20766;-76
2021/05/16 01:56:42;;;;;;;2.80;2.60;;;15.20;99.90;;;;;;5073645;28;20597;-75
2021/05/16 01:59:08;;;;;;;3.80;3.50;;;15.20;99.90;;;;;;5073695;28;20214;-76
2021/05/16 02:01:35;;;;;;;3.22;3.03;;;15.20;99.90;;;;;;5074020;28;20213;-77
2021/05/16 02:04:02;;;;;;;2.60;2.40;;;15.20;99.90;;;;;;5072935;28;20210;-75
2021/05/16 02:06:29;;;;;;;2.30;2.10;;;15.20;99.90;;;;;;5073439;28;20750;-78
2021/05/16 02:08:56;;;;;;;2.40;2.20;;;15.10;99.90;;;;;;5073175;28;20230;-73
2021/05/16 02:11:23;;;;;;;3.50;2.47;;;15.10;99.90;;;;;;5073325;28;20674;-75
2021/05/16 02:13:51;;;;;;;2.75;2.35;;;15.20;99.90;;;;;;5073805;28;20210;-76
2021/05/16 02:16:19;;;;;;;3.10;2.80;;;15.20;99.90;;;;;;5073492;28;20214;-74
2021/05/16 02:18:46;;;;;;;2.58;2.38;;;15.20;99.90;;;;;;5073324;28;20280;-77
2021/05/16 02:21:12;;;;;;;2.63;2.42;;;15.20;99.90;;;;;;5073413;28;20229;-75
2021/05/16 02:23:40;;;;;;;3.05;2.75;;;15.10;99.90;;;;;;5073425;28;20210;-73
2021/05/16 02:26:07;;;;;;;2.60;2.35;;;15.10;99.90;;;;;;5072660;28;20202;-75
2021/05/16 02:28:34;;;;;;;2.22;2.03;;;15.10;99.90;;;;;;5073362;28;20234;-75
2021/05/16 02:31:09;;;;;;;3.03;2.83;;;15.10;99.90;;;;;;5072656;28;20214;-75
2021/05/16 02:33:36;;;;;;;2.15;2.00;;;15.10;99.90;;;;;;5073263;28;20205;-73
2021/05/16 02:36:02;;;;;;;2.50;2.30;;;15.10;99.90;;;;;;5072491;28;20586;-77
2021/05/16 02:38:29;;;;;;;3.80;2.85;;;15.10;99.90;;;;;;5070990;28;20214;-74
2021/05/16 02:40:56;;;;;;;3.58;2.40;;;15.10;99.90;;;;;;5072405;28;20263;-75
2021/05/16 02:43:22;;;;;;;2.63;1.98;;;15.00;99.90;;;;;;5072966;28;20650;-78
2021/05/16 02:45:49;;;;;;;2.13;2.00;;;15.00;99.90;;;;;;5073253;28;20734;-80
2021/05/16 02:48:16;;;;;;;2.28;1.95;;;15.00;99.90;;;;;;5072371;28;20230;-79
2021/05/16 02:50:42;;;;;;;2.28;2.08;;;15.00;99.90;;;;;;5072932;28;20623;-79
2021/05/16 02:53:09;;;;;;;2.40;1.98;;;15.00;99.90;;;;;;5072346;28;20596;-77
2021/05/16 02:55:35;;;;;;;2.47;2.28;;;15.00;99.90;;;;;;5072252;28;20203;-79
2021/05/16 02:58:02;;;;;;;2.40;2.20;;;15.00;99.90;;;;;;5072516;28;20210;-78
2021/05/16 03:00:28;;;;;;;2.85;2.65;;;15.00;99.90;;;;;;5072528;28;20206;-77
2021/05/16 03:02:55;;;;;;;2.70;2.50;;;14.90;99.90;;;;;;5072557;28;20210;-78
2021/05/16 03:05:22;;;;;;;2.67;2.47;;;15.00;99.90;;;;;;5072843;28;20217;-74
2021/05/16 03:07:50;;;;;;;2.40;2.20;;;15.00;99.90;;;;;;5073042;28;20206;-77
2021/05/16 03:10:18;;;;;;;2.97;2.13;;;15.00;99.90;;;;;;5072500;28;20202;-75
2021/05/16 03:12:45;;;;;;;3.88;3.13;;;15.00;99.90;;;;;;5072530;28;20210;-77
2021/05/16 03:15:13;;;;;;;2.63;2.15;;;15.00;99.90;;;;;;5071798;28;20210;-78
2021/05/16 03:17:40;;;;;;;3.30;2.53;;;15.00;99.90;;;;;;5072163;28;20202;-75
2021/05/16 03:20:07;;;;;;;2.33;2.13;;;15.00;99.90;;;;;;5072238;28;20202;-77
2021/05/16 03:22:35;;;;;;;2.97;2.35;;;15.00;99.90;;;;;;5071981;28;20206;-77
2021/05/16 03:25:01;;;;;;;2.47;2.30;;;15.00;99.90;;;;;;5071563;28;20210;-78
2021/05/16 03:27:28;;;;;;;2.78;2.58;;;15.00;99.90;;;;;;5072139;28;20206;-78
2021/05/16 03:29:54;;;;;;;2.70;2.53;;;14.90;99.90;;;;;;5071475;28;20238;-76
2021/05/16 03:32:21;;;;;;;3.22;2.25;;;15.00;99.90;;;;;;5072705;28;20213;-79
2021/05/16 03:34:48;;;;;;;2.30;2.10;;;15.00;99.90;;;;;;5072346;28;20240;-77
2021/05/16 03:37:14;;;;;;;2.53;2.33;;;14.90;99.90;;;;;;5071360;28;20206;-77
2021/05/16 03:39:42;;;;;;;2.80;2.60;;;14.80;99.90;;;;;;5071720;28;20209;-75
2021/05/16 03:42:08;;;;;;;2.35;2.17;;;14.80;99.90;;;;;;5071136;28;20206;-75
2021/05/16 03:44:35;;;;;;;2.53;2.33;;;14.90;99.90;;;;;;5071831;28;20202;-76
2021/05/16 03:47:01;;;;;;;2.63;2.42;;;14.90;99.90;;;;;;5071239;28;20205;-77
2021/05/16 03:49:28;;;;;;;2.65;2.45;;;14.90;99.90;;;;;;5071918;28;20241;-76
2021/05/16 03:51:55;;;;;;;3.35;2.70;;;14.90;99.90;;;;;;5070958;28;20214;-77
2021/05/16 03:54:21;;;;;;;3.15;2.95;;;14.90;99.90;;;;;;5071638;28;20206;-75
2021/05/16 03:56:49;;;;;;;2.72;2.53;;;14.90;99.90;;;;;;5071432;28;20206;-75
2021/05/16 03:59:15;;;;;;;3.83;3.53;;;14.90;99.90;;;;;;5070875;28;20264;-76
2021/05/16 04:01:42;;;;;;;3.63;3.33;;;14.90;99.90;;;;;;5071670;28;20214;-75
2021/05/16 04:04:08;;;;;;;4.47;3.30;;;14.90;99.90;;;;;;5071120;28;20202;-76
2021/05/16 04:06:35;;;;;;;3.30;3.00;;;14.80;99.90;;;;;;5071208;28;20202;-76
2021/05/16 04:09:01;;;;;;;3.80;3.40;;;14.90;99.90;;;;;;5070782;28;20226;-75
2021/05/16 04:11:28;;;;;;;5.72;4.05;;;14.90;99.90;;;;;;5071190;28;20214;-75
2021/05/16 04:13:55;;;;;;;5.07;3.90;;;14.90;99.90;;;;;;5070815;28;20206;-75
2021/05/16 04:16:21;;;;;;;12.02;4.13;;;14.90;99.90;;;;;;5071228;28;20611;-74
2021/05/16 04:18:48;;;;;;;4.32;3.92;;;14.90;99.90;;;;;;5071544;28;20271;-75
2021/05/16 04:21:14;;;;;;;3.63;3.35;;;14.90;99.90;;;;;;5070697;28;20198;-73
2021/05/16 04:23:41;;;;;;;7.47;3.70;;;15.00;99.90;;;;;;5070756;28;20701;-74
2021/05/16 04:26:07;;;;;;;5.18;4.53;;;14.90;99.90;;;;;;5070140;28;20293;-73
2021/05/16 04:28:34;;;;;;;4.97;4.35;;;14.90;99.90;;;;;;5070968;28;20717;-73
2021/05/16 04:31:01;;;;;;;4.70;4.30;;;14.90;99.90;;;;;;5070810;28;20256;-73
2021/05/16 04:33:28;;;;;;;4.97;4.50;;;14.90;99.90;;;;;;5070765;28;20202;-76
2021/05/16 04:35:55;;;;;;;5.93;5.43;;;14.90;99.90;;;;;;5070464;28;20202;-72
2021/05/16 04:38:22;;;;;;;4.38;3.97;;;14.90;99.90;;;;;;5070414;28;20213;-73
2021/05/16 04:40:48;;;;;;;5.05;4.65;;;15.00;99.90;;;;;;5071229;28;20240;-74
2021/05/16 04:43:15;;;;;;;5.85;4.47;;;15.00;99.90;;;;;;5070266;28;20206;-75
2021/05/16 04:45:42;;;;;;;5.45;4.55;;;15.00;99.90;;;;;;5070846;28;20248;-73
2021/05/16 04:48:10;;;;;;;5.47;4.95;;;15.00;99.90;;;;;;5070498;28;20225;-72
2021/05/16 04:50:36;;;;;;;4.60;4.20;;;15.10;99.90;;;;;;5056654;28;20206;-73
2021/05/16 04:53:03;;;;;;;5.15;4.60;;;15.00;99.90;;;;;;5070343;28;20206;-73
2021/05/16 04:55:29;;;;;;;5.28;4.85;;;15.00;99.90;;;;;;5070614;28;20206;-72
2021/05/16 04:57:56;;;;;;;7.25;6.25;;;14.90;99.90;;;;;;5070413;28;20206;-72
2021/05/16 05:00:23;;;;;;;10.40;5.43;;;15.00;99.90;;;;;;5070362;28;20206;-72
2021/05/16 05:02:50;;;;;;;6.80;5.28;;;14.90;99.90;;;;;;5071034;28;20215;-72
2021/05/16 05:05:18;;;;;;;6.63;6.07;;;15.00;99.90;;;;;;5069811;28;20213;-73
2021/05/16 05:07:45;;;;;;;8.80;6.25;;;15.00;99.90;;;;;;5070525;28;20210;-73
2021/05/16 05:10:13;;;;;;;6.88;6.03;;;15.00;99.90;;;;;;5069516;28;20234;-73
2021/05/16 05:12:39;;;;;;;6.05;5.30;;;15.00;99.90;;;;;;5069933;28;20271;-72
2021/05/16 05:15:07;;;;;;;6.25;5.63;;;15.00;99.90;;;;;;5070143;28;20263;-73
2021/05/16 05:17:34;;;;;;;7.75;4.82;;;15.00;99.90;;;;;;5070371;28;20300;-73
2021/05/16 05:20:00;;;;;;;5.82;5.22;;;15.00;99.90;;;;;;5069758;28;20235;-75
2021/05/16 05:22:28;;;;;;;7.22;5.88;;;15.10;99.90;;;;;;5069987;28;20218;-74
2021/05/16 05:24:54;;;;;;;7.22;5.47;;;15.10;99.90;;;;;;5069827;28;20218;-72
2021/05/16 05:27:21;;;;;;;8.30;5.25;;;15.10;99.90;;;;;;5070963;28;20210;-75
2021/05/16 05:29:47;;;;;;;6.57;5.97;;;15.00;99.90;;;;;;5070368;28;20648;-74
2021/05/16 05:32:14;;;;;;;6.30;5.18;;;15.10;99.90;;;;;;5069971;28;20237;-73
2021/05/16 05:34:40;;;;;;;6.53;5.35;;;15.10;99.90;;;;;;5069787;28;20674;-74
2021/05/16 05:37:07;;;;;;;6.25;5.10;;;15.10;99.90;;;;;;5070125;28;20217;-74
2021/05/16 05:39:34;;;;;;;8.45;5.65;;;15.10;99.90;;;;;;5070550;28;20209;-74
2021/05/16 05:42:00;;;;;;;7.20;6.50;;;15.10;99.90;;;;;;5069740;28;20283;-75
2021/05/16 05:44:27;;;;;;;4.85;4.45;;;15.10;99.90;;;;;;5070173;28;20206;-73
2021/05/16 05:46:53;;;;;;;9.32;6.70;;;15.10;99.90;;;;;;5069864;28;20669;-73
2021/05/16 05:49:20;;;;;;;7.93;5.60;;;15.20;99.90;;;;;;5070244;28;20300;-73
2021/05/16 05:51:46;;;;;;;10.57;5.35;;;15.30;99.90;;;;;;5070346;28;20202;-77
2021/05/16 05:54:13;;;;;;;7.25;6.30;;;15.30;99.90;;;;;;5069646;28;20661;-73
2021/05/16 05:56:40;;;;;;;6.25;5.68;;;15.20;99.90;;;;;;5070258;28;20206;-74
2021/05/16 05:59:08;;;;;;;8.18;6.60;;;15.30;99.90;;;;;;5062217;28;20211;-73
2021/05/16 06:01:35;;;;;;;6.90;6.20;;;15.30;99.90;;;;;;5062341;28;20207;-72
2021/05/16 06:04:01;;;;;;;6.57;5.95;;;15.30;99.90;;;;;;5069100;28;20206;-79
2021/05/16 06:06:28;;;;;;;6.25;5.70;;;15.30;99.90;;;;;;5069984;28;20206;-73
2021/05/16 06:08:54;;;;;;;8.55;7.60;;;15.40;99.90;;;;;;5069273;28;20283;-72
2021/05/16 06:11:21;;;;;;;7.57;6.05;;;15.40;99.90;;;;;;5070401;28;20240;-72
2021/05/16 06:13:48;;;;;;;6.53;5.95;;;15.40;99.90;;;;;;5070004;28;20210;-72
2021/05/16 06:16:15;;;;;;;7.90;5.70;;;15.50;99.90;;;;;;5069451;28;20264;-71
2021/05/16 06:18:41;;;;;;;5.97;5.32;;;15.80;99.90;;;;;;5069906;28;20218;-72
2021/05/16 06:21:08;;;;;;;7.10;5.55;;;15.90;99.90;;;;;;5069433;28;20210;-77
2021/05/16 06:23:37;;;;;;;5.43;4.57;;;16.10;99.90;;;;;;5073272;28;20206;-73
2021/05/16 06:26:03;;;;;;;6.07;5.07;;;16.10;99.90;;;;;;5073074;28;20202;-76
2021/05/16 06:28:30;;;;;;;6.32;5.35;;;16.10;99.90;;;;;;5073078;28;20230;-77
2021/05/16 06:30:57;;;;;;;6.38;5.47;;;16.10;99.90;;;;;;5072613;28;20217;-77
2021/05/16 06:33:23;;;;;;;5.80;4.78;;;16.10;99.90;;;;;;5073217;28;20205;-77
2021/05/16 06:35:50;;;;;;;5.85;5.35;;;16.20;99.90;;;;;;5073648;28;20218;-77
2021/05/16 06:38:16;;;;;;;5.93;5.18;;;16.20;99.90;;;;;;5072922;28;20217;-76
2021/05/16 06:40:43;;;;;;;5.03;4.53;;;16.30;99.90;;;;;;5073351;28;20260;-72
2021/05/16 06:43:11;;;;;;;6.57;5.93;;;16.40;99.90;;;;;;5070004;28;20209;-72
2021/05/16 06:45:38;;;;;;;6.90;6.15;;;16.30;99.90;;;;;;5063859;28;20284;-77
2021/05/16 06:48:06;;;;;;;6.25;5.65;;;16.20;99.90;;;;;;5072766;28;20210;-76
2021/05/16 06:50:32;;;;;;;7.03;6.43;;;16.20;99.90;;;;;;5075581;28;20260;-74
2021/05/16 06:52:59;;;;;;;6.53;5.65;;;16.20;99.90;;;;;;5074061;28;20235;-75
2021/05/16 06:55:25;;;;;;;7.43;6.47;;;16.20;99.90;;;;;;5075774;28;20205;-76
2021/05/16 06:57:52;;;;;;;6.38;5.28;;;16.20;99.90;;;;;;5074580;28;20206;-73
2021/05/16 07:00:19;;;;;;;7.15;6.07;;;16.20;99.90;;;;;;5075284;28;20218;-76
2021/05/16 07:02:45;;;;;;;6.75;5.85;;;16.30;99.90;;;;;;5074304;28;20205;-74
2021/05/16 07:05:13;;;;;;;6.88;6.28;;;16.40;99.90;;;;;;5073989;28;20710;-76
2021/05/16 07:07:40;;;;;;;6.97;6.22;;;16.30;99.90;;;;;;5075129;28;20213;-75
2021/05/16 07:10:08;;;;;;;7.25;6.28;;;16.50;99.90;;;;;;5073259;28;20237;-77
2021/05/16 07:12:34;;;;;;;11.55;7.07;;;16.50;99.90;;;;;;5073662;28;20289;-82
2021/05/16 07:15:01;;;;;;;7.25;6.40;;;16.40;99.90;;;;;;5073655;28;20206;-75
2021/05/16 07:17:28;;;;;;;9.55;5.68;;;16.40;99.90;;;;;;5075238;28;20205;-77
2021/05/16 07:19:54;;;;;;;6.90;5.07;;;16.60;99.90;;;;;;5073790;28;20206;-75
2021/05/16 07:22:22;;;;;;;9.05;6.93;;;16.70;99.90;;;;;;5065730;28;20207;-74
2021/05/16 07:24:48;;;;;;;5.93;5.28;;;16.60;99.90;;;;;;5072687;28;20233;-77
2021/05/16 07:27:15;;;;;;;7.38;6.60;;;16.50;99.90;;;;;;5068843;28;20206;-79
2021/05/16 07:29:41;;;;;;;10.23;6.57;;;16.50;99.90;;;;;;5074894;28;20298;-80
2021/05/16 07:32:08;;;;;;;8.82;6.50;;;16.40;99.90;;;;;;5082884;28;20205;-80
2021/05/16 07:34:34;;;;;;;9.30;5.78;;;16.40;99.90;;;;;;5071929;28;20210;-78
2021/05/16 07:37:01;;;;;;;7.63;6.72;;;16.30;99.90;;;;;;5086843;28;20205;-80
2021/05/16 07:39:28;;;;;;;13.10;7.85;;;16.40;99.90;;;;;;5083523;28;20210;-82
2021/05/16 07:41:55;;;;;;;8.25;5.47;;;16.40;99.90;;;;;;5079630;28;20207;-82
2021/05/16 07:44:21;;;;;;;8.25;6.18;;;16.40;99.90;;;;;;5075746;28;20568;-78
2021/05/16 07:46:48;;;;;;;6.10;5.53;;;16.50;99.90;;;;;;5068883;28;20566;-80
2021/05/16 07:49:14;;;;;;;8.05;7.22;;;16.50;99.90;;;;;;5072348;28;20793;-82
2021/05/16 07:51:41;;;;;;;9.50;5.60;;;16.50;99.90;;;;;;5066059;28;20202;-82
2021/05/16 07:54:08;;;;;;;6.50;5.90;;;16.40;99.90;;;;;;5072636;28;20237;-79
2021/05/16 07:56:37;;;;;;;6.05;4.70;;;16.30;99.90;;;;;;5072584;28;20206;-78
2021/05/16 07:59:03;;;;;;;5.72;5.25;;;16.30;99.90;;;;;;5071629;28;20571;-79
2021/05/16 08:01:30;;;;;;;6.30;4.85;;;16.30;99.90;;;;;;5072702;28;20217;-78
2021/05/16 08:03:57;;;;;;;5.10;4.57;;;16.40;99.90;;;;;;5066342;28;20731;-80
2021/05/16 08:06:23;;;;;;;4.53;4.00;;;16.50;99.90;;;;;;5072820;28;20296;-81
2021/05/16 08:08:50;;;;;;;4.55;4.15;;;16.50;99.90;;;;;;5073780;28;20229;-80
2021/05/16 08:11:16;;;;;;;4.75;3.75;;;16.70;99.90;;;;;;5071008;28;20205;-81
2021/05/16 08:13:44;;;;;;;4.30;3.88;;;16.70;99.90;;;;;;5072664;28;20202;-79
2021/05/16 08:16:10;;;;;;;4.45;3.70;;;16.80;99.90;;;;;;5072799;28;20557;-79
2021/05/16 08:18:37;;;;;;;3.95;3.55;;;16.90;99.90;;;;;;5072208;28;20581;-76
2021/05/16 08:21:03;;;;;;;5.60;3.85;;;16.90;99.90;;;;;;5072921;28;20674;-77
2021/05/16 08:23:30;;;;;;;4.50;3.63;;;16.80;99.90;;;;;;5072108;28;20677;-80
2021/05/16 08:25:56;;;;;;;3.78;3.47;;;16.80;99.90;;;;;;5071621;28;20259;-80
2021/05/16 08:28:25;;;;;;;4.07;3.55;;;16.80;99.90;;;;;;5070567;28;20198;-80
2021/05/16 08:30:53;;;;;;;4.32;3.92;;;16.90;99.90;;;;;;5071060;28;20681;-76
2021/05/16 08:33:19;;;;;;;6.57;4.18;;;16.90;99.90;;;;;;5071029;28;20285;-81
2021/05/16 08:35:46;;;;;;;4.18;2.95;;;16.90;99.90;;;;;;5070977;28;20206;-79
2021/05/16 08:38:13;;;;;;;5.55;3.03;;;16.90;99.90;;;;;;5070500;28;20496;-81
2021/05/16 08:40:40;;;;;;;3.85;3.45;;;17.10;99.90;;;;;;5070818;28;20571;-79
2021/05/16 08:43:06;;;;;;;3.58;2.67;;;17.30;99.90;;;;;;5070178;28;20259;-79
2021/05/16 08:45:33;;;;;;;3.05;2.13;;;17.50;99.90;;;;;;5070751;28;20198;-78
2021/05/16 08:48:01;;;;;;;4.00;2.83;;;17.90;99.90;;;;;;5063259;28;20218;-80
2021/05/16 08:50:28;;;;;;;3.28;2.38;;;18.20;99.90;;;;;;5069299;28;20230;-78
2021/05/16 08:52:55;;;;;;;3.17;2.70;;;18.20;99.90;;;;;;5070528;28;20213;-74
2021/05/16 08:55:22;;;;;;;3.03;2.35;;;17.90;99.90;;;;;;5070576;28;20723;-75
2021/05/16 08:57:48;;;;;;;5.07;2.03;;;17.60;99.90;;;;;;5070929;28;20202;-74
2021/05/16 09:00:17;;;;;;;2.42;1.92;;;17.30;99.90;;;;;;5070131;28;20209;-75
2021/05/16 09:03:09;;;;;;;3.17;2.00;;;17.20;99.90;;;;;;5070597;28;20214;-76
2021/05/16 09:05:38;;;;;;;2.05;1.65;;;17.10;99.90;;;;;;5073644;28;20668;-75
2021/05/16 09:08:07;;;;;;;1.42;1.33;;;17.00;99.90;;;;;;5080539;28;20290;-74
2021/05/16 09:10:35;;;;;;;1.00;0.88;;;17.00;99.90;;;;;;5069846;28;20229;-74
2021/05/16 09:13:12;;;;;;;1.85;1.35;;;16.80;99.90;;;;;;5070052;28;20209;-75
2021/05/16 09:15:39;;;;;;;1.45;1.35;;;16.80;99.90;;;;;;5070097;28;20206;-74
2021/05/16 09:18:06;;;;;;;3.95;1.20;;;16.90;99.90;;;;;;5070151;28;20213;-75
2021/05/16 09:20:33;;;;;;;1.00;0.85;;;16.90;99.90;;;;;;5070350;28;20217;-76
2021/05/16 09:22:59;;;;;;;1.30;0.70;;;16.90;99.90;;;;;;5069945;28;20697;-76
2021/05/16 09:25:29;;;;;;;1.08;0.65;;;16.90;99.90;;;;;;5069824;28;20218;-75
2021/05/16 09:28:09;;;;;;;0.98;0.80;;;16.90;99.90;;;;;;5069887;28;20210;-76
2021/05/16 09:30:36;;;;;;;1.13;0.82;;;16.80;99.90;;;;;;5070419;28;20217;-76
2021/05/16 09:33:04;;;;;;;1.20;1.10;;;17.00;99.90;;;;;;5069921;28;20206;-76
2021/05/16 09:35:34;;;;;;;1.17;0.95;;;17.10;99.90;;;;;;5070247;28;20210;-74
2021/05/16 09:38:06;;;;;;;0.77;0.70;;;17.00;99.90;;;;;;5069567;28;20206;-73
2021/05/16 09:40:37;;;;;;;0.98;0.77;;;17.00;99.90;;;;;;5069961;28;20267;-75
2021/05/16 09:43:23;;;;;;;0.80;0.80;;;16.90;99.90;;;;;;5069936;28;20266;-75
2021/05/16 09:46:00;;;;;;;1.27;1.08;;;17.00;99.90;;;;;;5059164;28;20292;-75
2021/05/16 09:48:30;;;;;;;0.98;0.70;;;17.00;99.90;;;;;;5070074;28;20288;-74
2021/05/16 09:51:22;;;;;;;1.42;1.02;;;17.00;99.90;;;;;;5069614;28;20536;-77
2021/05/16 09:53:55;;;;;;;0.98;0.85;;;17.10;99.90;;;;;;5070289;28;20210;-78
2021/05/16 09:56:24;;;;;;;0.90;0.60;;;17.10;99.90;;;;;;5070596;28;20207;-76
2021/05/16 09:58:52;;;;;;;1.15;0.90;;;17.10;99.90;;;;;;5074125;28;20263;-76
2021/05/16 10:01:19;;;;;;;0.70;0.70;;;17.10;99.90;;;;;;5073690;28;20667;-76
2021/05/16 10:03:48;;;;;;;1.88;0.70;;;16.90;99.90;;;;;;5073749;28;20205;-75
2021/05/16 10:06:15;;;;;;;4.93;1.05;;;16.90;99.90;;;;;;5066365;28;20233;-76
2021/05/16 10:08:45;;;;;;;1.00;0.50;;;17.00;99.90;;;;;;5065039;28;20240;-76
2021/05/16 10:11:13;;;;;;;0.60;0.45;;;17.00;99.90;;;;;;5065422;28;20293;-75
2021/05/16 10:13:42;;;;;;;1.48;0.52;;;17.00;99.90;;;;;;5075142;28;20202;-76
2021/05/16 10:16:15;;;;;;;1.45;0.63;;;17.10;99.90;;;;;;5071925;28;20218;-74
2021/05/16 10:18:43;;;;;;;0.82;0.70;;;17.30;99.90;;;;;;5073732;28;20214;-76
2021/05/16 10:21:09;;;;;;;1.55;0.80;;;16.80;99.90;;;;;;5070837;28;20248;-75
2021/05/16 10:23:37;;;;;;;1.50;0.90;;;17.20;99.90;;;;;;5075040;28;20199;-74
2021/05/16 10:26:16;;;;;;;1.80;0.95;;;17.20;99.90;;;;;;5067114;28;20213;-74
2021/05/16 10:28:54;;;;;;;1.48;0.90;;;17.20;99.90;;;;;;5071136;28;20217;-76
2021/05/16 10:31:46;;;;;;;3.08;1.55;;;16.90;99.90;;;;;;5068879;28;20211;-74
2021/05/16 10:34:40;;;;;;;0.60;0.60;;;17.00;99.90;;;;;;5063703;28;20206;-74
2021/05/16 10:37:09;;;;;;;2.10;0.55;;;17.00;99.90;;;;;;5070441;28;20205;-74
2021/05/16 10:39:52;;;;;;;0.57;0.55;;;17.00;99.90;;;;;;5088282;28;20206;-75
2021/05/16 10:42:21;;;;;;;0.75;0.73;;;17.00;99.90;;;;;;5070067;28;20205;-75
2021/05/16 10:45:02;;;;;;;1.10;0.93;;;17.20;99.90;;;;;;5080778;28;20256;-74
2021/05/16 10:47:56;;;;;;;0.70;0.57;;;17.30;99.90;;;;;;5080242;28;20241;-74
2021/05/16 10:50:49;;;;;;;0.90;0.60;;;17.50;99.90;;;;;;5084085;28;20693;-75
2021/05/16 10:53:23;;;;;;;0.70;0.52;;;17.40;99.90;;;;;;5082000;28;20203;-73
2021/05/16 10:55:51;;;;;;;0.40;0.40;;;17.50;99.90;;;;;;5074807;28;20201;-73
2021/05/16 10:58:38;;;;;;;0.73;0.65;;;17.50;99.90;;;;;;5083197;28;20202;-74
2021/05/16 11:01:06;;;;;;;0.60;0.60;;;17.50;99.90;;;;;;5071776;28;20707;-74
2021/05/16 11:03:48;;;;;;;0.68;0.68;;;17.40;99.90;;;;;;5060759;28;20211;-74
2021/05/16 11:06:16;;;;;;;0.68;0.50;;;17.50;99.90;;;;;;5077437;28;20202;-77
2021/05/16 11:09:13;;;;;;;0.63;0.60;;;17.50;99.90;;;;;;5077019;28;20230;-77
2021/05/16 11:11:56;;;;;;;0.60;0.60;;;17.40;99.90;;;;;;5071252;28;20202;-74
2021/05/16 11:14:25;;;;;;;2.20;0.45;;;17.40;99.90;;;;;;5078587;28;20208;-76
2021/05/16 11:16:54;;;;;;;1.30;0.40;;;17.20;99.90;;;;;;5087180;28;20265;-74
2021/05/16 11:19:23;;;;;;;1.85;0.50;;;17.20;99.90;;;;;;5082008;28;20205;-78
2021/05/16 11:21:49;;;;;;;0.52;0.52;;;17.30;99.90;;;;;;5088259;28;20210;-79
2021/05/16 11:24:16;;;;;;;0.88;0.80;;;17.20;99.90;;;;;;5085253;28;20209;-79
2021/05/16 11:26:43;;;;;;;1.10;0.93;;;17.30;99.90;;;;;;5072670;28;20202;-79
2021/05/16 11:29:10;;;;;;;0.70;0.70;;;17.40;99.90;;;;;;5069407;28;20234;-77
2021/05/16 11:31:38;;;;;;;1.08;0.90;;;17.30;99.90;;;;;;5071184;28;20202;-79
2021/05/16 11:34:06;;;;;;;1.10;0.93;;;17.30;99.90;;;;;;5072066;28;20217;-77
2021/05/16 11:36:38;;;;;;;0.98;0.55;;;17.00;99.90;;;;;;5071497;28;20673;-78
2021/05/16 11:39:08;;;;;;;0.98;0.73;;;17.00;99.90;;;;;;5071551;28;20346;-76
2021/05/16 11:41:37;;;;;;;0.57;0.45;;;16.90;99.90;;;;;;5071541;28;20206;-78
2021/05/16 11:44:06;;;;;;;0.73;0.73;;;17.00;99.90;;;;;;5071754;28;20316;-76
2021/05/16 11:46:39;;;;;;;1.25;0.60;;;16.90;99.90;;;;;;5071781;28;20210;-78
2021/05/16 11:49:06;;;;;;;0.50;0.40;;;17.00;99.90;;;;;;5071448;28;20225;-79
2021/05/16 11:51:32;;;;;;;0.95;0.90;;;17.20;99.90;;;;;;5071560;28;20279;-77
2021/05/16 11:54:00;;;;;;;0.73;0.73;;;17.20;99.90;;;;;;5071300;28;20636;-78
2021/05/16 11:56:28;;;;;;;0.50;0.50;;;17.10;99.90;;;;;;5071450;28;20208;-77
2021/05/16 11:58:56;;;;;;;0.88;0.57;;;16.90;99.90;;;;;;5070969;28;20213;-79
2021/05/16 12:01:24;;;;;;;0.60;0.60;;;16.70;99.90;;;;;;5071491;28;20206;-79
2021/05/16 12:03:53;;;;;;;1.10;0.90;;;16.80;99.90;;;;;;5071604;28;20211;-78
2021/05/16 12:06:20;;;;;;;0.50;0.50;;;17.00;99.90;;;;;;5071644;28;20402;-79
2021/05/16 12:08:58;;;;;;;0.52;0.52;;;17.00;99.90;;;;;;5071569;28;20682;-79
2021/05/16 12:11:24;;;;;;;0.70;0.70;;;16.60;99.90;;;;;;5071473;28;20201;-79
2021/05/16 12:13:51;;;;;;;1.80;0.60;;;16.40;99.90;;;;;;5071499;28;20210;-76
2021/05/16 12:16:19;;;;;;;0.95;0.95;;;16.20;99.90;;;;;;5071301;28;20556;-76
2021/05/16 12:18:48;;;;;;;0.70;0.65;;;16.20;99.90;;;;;;5070945;28;20703;-84
2021/05/16 12:21:17;;;;;;;0.85;0.85;;;16.40;99.90;;;;;;5056837;28;20210;-81
2021/05/16 12:23:51;;;;;;;1.02;0.77;;;16.70;99.90;;;;;;5071059;28;20240;-74
2021/05/16 12:26:18;;;;;;;0.50;0.50;;;16.90;99.90;;;;;;5070876;28;20206;-77
2021/05/16 12:28:45;;;;;;;0.65;0.50;;;16.80;99.90;;;;;;5070772;28;20210;-77
2021/05/16 12:31:12;;;;;;;0.40;0.40;;;16.40;99.90;;;;;;5070266;28;20210;-77
2021/05/16 12:33:39;;;;;;;1.27;0.47;;;16.20;99.90;;;;;;5071127;28;20202;-78
2021/05/16 12:36:06;;;;;;;1.73;0.50;;;15.90;99.90;;;;;;5070565;28;20640;-78
2021/05/16 12:38:43;;;;;;;1.88;0.73;;;15.70;99.90;;;;;;5070741;28;20232;-77
2021/05/16 12:41:20;;;;;;;0.80;0.50;;;15.80;99.90;;;;;;5070348;28;20206;-79
2021/05/16 12:44:07;;;;;;;0.68;0.60;;;16.00;99.90;;;;;;5071084;28;20255;-75
2021/05/16 12:46:41;;;;;;;0.30;0.30;;;16.10;99.90;;;;;;5070765;28;20254;-76
2021/05/16 12:49:08;;;;;;;1.55;0.40;;;15.90;99.90;;;;;;5069968;28;20228;-78
2021/05/16 12:51:35;;;;;;;0.65;0.65;;;15.70;99.90;;;;;;5070355;28;20202;-74